sensor_id;sensor_type;location;lat;lon;timestamp;temperature;humidity
13436;DHT22;6790;49.520;8.504;2023-01-13T00:00:49;10.50;99.90
13436;DHT22;6790;49.520;8.504;2023-01-13T00:03:15;10.40;99.90
13436;DHT22;6790;49.520;8.504;2023-01-13T00:05:40;10.40;99.90
13436;DHT22;6790;49.520;8.504;2023-01-13T00:08:06;10.50;99.90
13436;DHT22;6790;49.520;8.504;2023-01-13T00:10:33;10.50;99.90
13436;DHT22;6790;49.520;8.504;2023-01-13T00:13:00;10.50;99.90
13436;DHT22;6790;49.520;8.504;2023-01-13T00:15:26;10.60;99.90
13436;DHT22;6790;49.520;8.504;2023-01-13T00:17:52;10.60;99.90
13436;DHT22;6790;49.520;8.504;2023-01-13T00:20:17;10.60;99.90
13436;DHT22;6790;49.520;8.504;2023-01-13T00:22:43;10.70;99.90
13436;DHT22;6790;49.520;8.504;2023-01-13T00:25:09;10.70;99.90
13436;DHT22;6790;49.520;8.504;2023-01-13T00:27:35;10.70;99.90
13436;DHT22;6790;49.520;8.504;2023-01-13T00:30:00;10.70;99.90
13436;DHT22;6790;49.520;8.504;2023-01-13T00:32:27;10.70;99.90
13436;DHT22;6790;49.520;8.504;2023-01-13T00:34:53;10.70;99.90
13436;DHT22;6790;49.520;8.504;2023-01-13T00:37:19;10.70;99.90
13436;DHT22;6790;49.520;8.504;2023-01-13T00:39:45;10.70;99.90
13436;DHT22;6790;49.520;8.504;2023-01-13T00:42:11;10.70;99.90
13436;DHT22;6790;49.520;8.504;2023-01-13T00:44:55;10.70;99.90
13436;DHT22;6790;49.520;8.504;2023-01-13T00:47:20;10.70;99.90
13436;DHT22;6790;49.520;8.504;2023-01-13T00:49:47;10.70;99.90
13436;DHT22;6790;49.520;8.504;2023-01-13T00:52:14;10.70;99.90
13436;DHT22;6790;49.520;8.504;2023-01-13T00:54:40;10.60;99.90
13436;DHT22;6790;49.520;8.504;2023-01-13T00:57:06;10.60;99.90
13436;DHT22;6790;49.520;8.504;2023-01-13T00:59:31;10.60;99.90
13436;DHT22;6790;49.520;8.504;2023-01-13T01:01:57;10.60;99.90
13436;DHT22;6790;49.520;8.504;2023-01-13T01:04:23;10.50;99.90
13436;DHT22;6790;49.520;8.504;2023-01-13T01:06:49;10.60;99.90
13436;DHT22;6790;49.520;8.504;2023-01-13T01:09:16;10.60;99.90
13436;DHT22;6790;49.520;8.504;2023-01-13T01:11:41;10.60;99.90
13436;DHT22;6790;49.520;8.504;2023-01-13T01:14:10;10.50;99.90
13436;DHT22;6790;49.520;8.504;2023-01-13T01:16:38;10.50;99.90
13436;DHT22;6790;49.520;8.504;2023-01-13T01:19:05;10.60;99.90
13436;DHT22;6790;49.520;8.504;2023-01-13T01:21:31;10.60;99.90
13436;DHT22;6790;49.520;8.504;2023-01-13T01:24:00;10.50;99.90
13436;DHT22;6790;49.520;8.504;2023-01-13T01:26:28;10.50;99.90
13436;DHT22;6790;49.520;8.504;2023-01-13T01:28:55;10.40;99.90
13436;DHT22;6790;49.520;8.504;2023-01-13T01:31:25;10.40;99.90
13436;DHT22;6790;49.520;8.504;2023-01-13T01:33:53;10.50;99.90
13436;DHT22;6790;49.520;8.504;2023-01-13T01:36:20;10.50;99.90
13436;DHT22;6790;49.520;8.504;2023-01-13T01:38:47;10.50;99.90
13436;DHT22;6790;49.520;8.504;2023-01-13T01:41:19;10.40;99.90
13436;DHT22;6790;49.520;8.504;2023-01-13T01:43:51;10.50;99.90
13436;DHT22;6790;49.520;8.504;2023-01-13T01:46:31;10.40;99.90
13436;DHT22;6790;49.520;8.504;2023-01-13T01:52:10;10.40;99.90
13436;DHT22;6790;49.520;8.504;2023-01-13T02:00:30;10.40;99.90
13436;DHT22;6790;49.520;8.504;2023-01-13T02:02:56;10.40;99.90
13436;DHT22;6790;49.520;8.504;2023-01-13T02:05:23;10.40;99.90
13436;DHT22;6790;49.520;8.504;2023-01-13T02:07:51;10.30;99.90
13436;DHT22;6790;49.520;8.504;2023-01-13T02:10:22;10.30;99.90
13436;DHT22;6790;49.520;8.504;2023-01-13T02:12:51;10.30;99.90
13436;DHT22;6790;49.520;8.504;2023-01-13T02:15:34;10.30;99.90
13436;DHT22;6790;49.520;8.504;2023-01-13T02:18:33;10.30;99.90
13436;DHT22;6790;49.520;8.504;2023-01-13T02:24:52;10.30;99.90
13436;DHT22;6790;49.520;8.504;2023-01-13T02:30:43;10.30;99.90
13436;DHT22;6790;49.520;8.504;2023-01-13T02:33:41;10.30;99.90
13436;DHT22;6790;49.520;8.504;2023-01-13T02:36:37;10.30;99.90
13436;DHT22;6790;49.520;8.504;2023-01-13T02:39:13;10.30;99.90
13436;DHT22;6790;49.520;8.504;2023-01-13T02:42:08;10.20;99.90
13436;DHT22;6790;49.520;8.504;2023-01-13T02:47:55;10.20;99.90
13436;DHT22;6790;49.520;8.504;2023-01-13T02:50:28;10.10;99.90
13436;DHT22;6790;49.520;8.504;2023-01-13T02:53:23;10.10;99.90
13436;DHT22;6790;49.520;8.504;2023-01-13T02:55:53;10.10;99.90
13436;DHT22;6790;49.520;8.504;2023-01-13T02:58:26;10.10;99.90
13436;DHT22;6790;49.520;8.504;2023-01-13T03:00:54;10.10;99.90
13436;DHT22;6790;49.520;8.504;2023-01-13T03:03:19;10.10;99.90
13436;DHT22;6790;49.520;8.504;2023-01-13T03:05:47;10.10;99.90
13436;DHT22;6790;49.520;8.504;2023-01-13T03:12:05;10.10;99.90
13436;DHT22;6790;49.520;8.504;2023-01-13T03:14:43;10.10;99.90
13436;DHT22;6790;49.520;8.504;2023-01-13T03:17:31;10.20;99.90
13436;DHT22;6790;49.520;8.504;2023-01-13T03:22:51;10.20;99.90
13436;DHT22;6790;49.520;8.504;2023-01-13T03:25:27;10.20;99.90
13436;DHT22;6790;49.520;8.504;2023-01-13T03:28:03;10.20;99.90
13436;DHT22;6790;49.520;8.504;2023-01-13T03:33:32;10.20;99.90
13436;DHT22;6790;49.520;8.504;2023-01-13T03:36:06;10.20;99.90
13436;DHT22;6790;49.520;8.504;2023-01-13T03:38:41;10.20;99.90
13436;DHT22;6790;49.520;8.504;2023-01-13T03:41:20;10.20;99.90
13436;DHT22;6790;49.520;8.504;2023-01-13T03:43:52;10.20;99.90
13436;DHT22;6790;49.520;8.504;2023-01-13T03:50:06;10.20;99.90
13436;DHT22;6790;49.520;8.504;2023-01-13T03:52:37;10.20;99.90
13436;DHT22;6790;49.520;8.504;2023-01-13T03:55:07;10.10;99.90
13436;DHT22;6790;49.520;8.504;2023-01-13T03:57:45;10.10;99.90
13436;DHT22;6790;49.520;8.504;2023-01-13T04:00:37;10.10;99.90
13436;DHT22;6790;49.520;8.504;2023-01-13T04:03:10;10.10;99.90
13436;DHT22;6790;49.520;8.504;2023-01-13T04:05:41;10.10;99.90
13436;DHT22;6790;49.520;8.504;2023-01-13T04:08:27;10.10;99.90
13436;DHT22;6790;49.520;8.504;2023-01-13T04:11:04;10.10;99.90
13436;DHT22;6790;49.520;8.504;2023-01-13T04:13:36;10.10;99.90
13436;DHT22;6790;49.520;8.504;2023-01-13T04:16:05;10.10;99.90
13436;DHT22;6790;49.520;8.504;2023-01-13T04:18:31;10.10;99.90
13436;DHT22;6790;49.520;8.504;2023-01-13T04:21:01;10.10;99.90
13436;DHT22;6790;49.520;8.504;2023-01-13T04:23:27;10.20;99.90
13436;DHT22;6790;49.520;8.504;2023-01-13T04:25:53;10.20;99.90
13436;DHT22;6790;49.520;8.504;2023-01-13T04:28:20;10.20;99.90
13436;DHT22;6790;49.520;8.504;2023-01-13T04:30:46;10.20;99.90
13436;DHT22;6790;49.520;8.504;2023-01-13T04:33:13;10.20;99.90
13436;DHT22;6790;49.520;8.504;2023-01-13T04:35:39;10.20;99.90
13436;DHT22;6790;49.520;8.504;2023-01-13T04:38:13;10.20;99.90
13436;DHT22;6790;49.520;8.504;2023-01-13T04:40:43;10.20;99.90
13436;DHT22;6790;49.520;8.504;2023-01-13T04:43:08;10.20;99.90
13436;DHT22;6790;49.520;8.504;2023-01-13T04:45:34;10.30;99.90
13436;DHT22;6790;49.520;8.504;2023-01-13T04:48:00;10.30;99.90
13436;DHT22;6790;49.520;8.504;2023-01-13T04:50:26;10.30;99.90
13436;DHT22;6790;49.520;8.504;2023-01-13T04:52:52;10.30;99.90
13436;DHT22;6790;49.520;8.504;2023-01-13T04:55:20;10.30;99.90
13436;DHT22;6790;49.520;8.504;2023-01-13T04:57:46;10.40;99.90
13436;DHT22;6790;49.520;8.504;2023-01-13T05:00:14;10.40;99.90
13436;DHT22;6790;49.520;8.504;2023-01-13T05:02:41;10.40;99.90
13436;DHT22;6790;49.520;8.504;2023-01-13T05:05:08;10.40;99.90
13436;DHT22;6790;49.520;8.504;2023-01-13T05:07:34;10.40;99.90
13436;DHT22;6790;49.520;8.504;2023-01-13T05:09:59;10.40;99.90
13436;DHT22;6790;49.520;8.504;2023-01-13T05:12:25;10.40;99.90
13436;DHT22;6790;49.520;8.504;2023-01-13T05:15:13;10.40;99.90
13436;DHT22;6790;49.520;8.504;2023-01-13T05:17:58;10.40;99.90
13436;DHT22;6790;49.520;8.504;2023-01-13T05:20:24;10.40;99.90
13436;DHT22;6790;49.520;8.504;2023-01-13T05:22:50;10.40;99.90
13436;DHT22;6790;49.520;8.504;2023-01-13T05:25:37;10.50;99.90
13436;DHT22;6790;49.520;8.504;2023-01-13T05:28:04;10.50;99.90
13436;DHT22;6790;49.520;8.504;2023-01-13T05:30:35;10.50;99.90
13436;DHT22;6790;49.520;8.504;2023-01-13T05:33:02;10.50;99.90
13436;DHT22;6790;49.520;8.504;2023-01-13T05:35:28;10.50;99.90
13436;DHT22;6790;49.520;8.504;2023-01-13T05:37:55;10.50;99.90
13436;DHT22;6790;49.520;8.504;2023-01-13T05:40:21;10.50;99.90
13436;DHT22;6790;49.520;8.504;2023-01-13T05:43:09;10.50;99.90
13436;DHT22;6790;49.520;8.504;2023-01-13T05:46:03;10.40;99.90
13436;DHT22;6790;49.520;8.504;2023-01-13T05:48:35;10.50;99.90
13436;DHT22;6790;49.520;8.504;2023-01-13T05:51:07;10.50;99.90
13436;DHT22;6790;49.520;8.504;2023-01-13T05:53:34;10.40;99.90
13436;DHT22;6790;49.520;8.504;2023-01-13T05:56:05;10.50;99.90
13436;DHT22;6790;49.520;8.504;2023-01-13T05:58:32;10.40;99.90
13436;DHT22;6790;49.520;8.504;2023-01-13T06:01:01;10.40;99.90
13436;DHT22;6790;49.520;8.504;2023-01-13T06:03:29;10.50;99.90
13436;DHT22;6790;49.520;8.504;2023-01-13T06:05:55;10.50;99.90
13436;DHT22;6790;49.520;8.504;2023-01-13T06:08:24;10.50;99.90
13436;DHT22;6790;49.520;8.504;2023-01-13T06:10:50;10.40;99.90
13436;DHT22;6790;49.520;8.504;2023-01-13T06:13:15;10.40;99.90
13436;DHT22;6790;49.520;8.504;2023-01-13T06:15:41;10.30;99.90
13436;DHT22;6790;49.520;8.504;2023-01-13T06:18:07;10.10;99.90
13436;DHT22;6790;49.520;8.504;2023-01-13T06:20:32;10.00;99.90
13436;DHT22;6790;49.520;8.504;2023-01-13T06:22:59;9.90;99.90
13436;DHT22;6790;49.520;8.504;2023-01-13T06:28:06;9.80;99.90
13436;DHT22;6790;49.520;8.504;2023-01-13T06:30:41;9.80;99.90
13436;DHT22;6790;49.520;8.504;2023-01-13T06:33:13;9.70;99.90
13436;DHT22;6790;49.520;8.504;2023-01-13T06:35:44;9.70;99.90
13436;DHT22;6790;49.520;8.504;2023-01-13T06:38:14;9.70;99.90
13436;DHT22;6790;49.520;8.504;2023-01-13T06:40:41;9.70;99.90
13436;DHT22;6790;49.520;8.504;2023-01-13T06:43:07;9.70;99.90
13436;DHT22;6790;49.520;8.504;2023-01-13T06:45:55;9.70;99.90
13436;DHT22;6790;49.520;8.504;2023-01-13T06:48:26;9.60;99.90
13436;DHT22;6790;49.520;8.504;2023-01-13T06:50:57;9.50;99.90
13436;DHT22;6790;49.520;8.504;2023-01-13T06:53:23;9.40;99.90
13436;DHT22;6790;49.520;8.504;2023-01-13T06:55:49;9.30;99.90
13436;DHT22;6790;49.520;8.504;2023-01-13T06:58:15;9.20;99.90
13436;DHT22;6790;49.520;8.504;2023-01-13T07:00:40;9.20;99.90
13436;DHT22;6790;49.520;8.504;2023-01-13T07:03:12;9.10;99.90
13436;DHT22;6790;49.520;8.504;2023-01-13T07:05:40;9.10;99.90
13436;DHT22;6790;49.520;8.504;2023-01-13T07:08:07;9.00;99.90
13436;DHT22;6790;49.520;8.504;2023-01-13T07:10:34;9.00;99.90
13436;DHT22;6790;49.520;8.504;2023-01-13T07:13:02;8.90;99.90
13436;DHT22;6790;49.520;8.504;2023-01-13T07:16:01;8.90;99.90
13436;DHT22;6790;49.520;8.504;2023-01-13T07:18:30;8.90;99.90
13436;DHT22;6790;49.520;8.504;2023-01-13T07:21:02;8.90;99.90
13436;DHT22;6790;49.520;8.504;2023-01-13T07:23:39;8.90;99.90
13436;DHT22;6790;49.520;8.504;2023-01-13T07:26:07;8.80;99.90
13436;DHT22;6790;49.520;8.504;2023-01-13T07:28:34;8.80;99.90
13436;DHT22;6790;49.520;8.504;2023-01-13T07:31:00;8.80;99.90
13436;DHT22;6790;49.520;8.504;2023-01-13T07:33:26;8.80;99.90
13436;DHT22;6790;49.520;8.504;2023-01-13T07:35:59;8.80;99.90
13436;DHT22;6790;49.520;8.504;2023-01-13T07:38:27;8.70;99.90
13436;DHT22;6790;49.520;8.504;2023-01-13T07:40:53;8.60;99.90
13436;DHT22;6790;49.520;8.504;2023-01-13T07:43:19;8.70;99.90
13436;DHT22;6790;49.520;8.504;2023-01-13T07:45:57;8.60;99.90
13436;DHT22;6790;49.520;8.504;2023-01-13T07:48:25;8.60;99.90
13436;DHT22;6790;49.520;8.504;2023-01-13T07:50:51;8.50;99.90
13436;DHT22;6790;49.520;8.504;2023-01-13T07:53:17;8.50;99.90
13436;DHT22;6790;49.520;8.504;2023-01-13T07:55:43;8.60;99.90
13436;DHT22;6790;49.520;8.504;2023-01-13T07:58:10;8.50;99.90
13436;DHT22;6790;49.520;8.504;2023-01-13T08:00:38;8.50;99.90
13436;DHT22;6790;49.520;8.504;2023-01-13T08:03:04;8.50;99.90
13436;DHT22;6790;49.520;8.504;2023-01-13T08:05:30;8.40;99.90
13436;DHT22;6790;49.520;8.504;2023-01-13T08:07:56;8.40;99.90
13436;DHT22;6790;49.520;8.504;2023-01-13T08:10:22;8.40;99.90
13436;DHT22;6790;49.520;8.504;2023-01-13T08:12:48;8.30;99.90
13436;DHT22;6790;49.520;8.504;2023-01-13T08:15:31;8.20;99.90
13436;DHT22;6790;49.520;8.504;2023-01-13T08:17:59;8.20;99.90
13436;DHT22;6790;49.520;8.504;2023-01-13T08:20:25;8.20;99.90
13436;DHT22;6790;49.520;8.504;2023-01-13T08:22:58;8.20;99.90
13436;DHT22;6790;49.520;8.504;2023-01-13T08:25:25;8.20;99.90
13436;DHT22;6790;49.520;8.504;2023-01-13T08:27:52;8.30;99.90
13436;DHT22;6790;49.520;8.504;2023-01-13T08:30:18;8.20;99.90
13436;DHT22;6790;49.520;8.504;2023-01-13T08:32:45;8.40;99.90
13436;DHT22;6790;49.520;8.504;2023-01-13T08:35:11;8.30;99.90
13436;DHT22;6790;49.520;8.504;2023-01-13T08:37:38;8.30;99.90
13436;DHT22;6790;49.520;8.504;2023-01-13T08:40:05;8.50;99.90
13436;DHT22;6790;49.520;8.504;2023-01-13T08:42:31;8.50;99.90
13436;DHT22;6790;49.520;8.504;2023-01-13T08:44:57;8.60;99.90
13436;DHT22;6790;49.520;8.504;2023-01-13T08:47:23;8.70;99.90
13436;DHT22;6790;49.520;8.504;2023-01-13T08:49:48;8.60;99.90
13436;DHT22;6790;49.520;8.504;2023-01-13T08:52:15;8.60;99.90
13436;DHT22;6790;49.520;8.504;2023-01-13T08:54:40;8.80;99.90
13436;DHT22;6790;49.520;8.504;2023-01-13T08:57:06;8.80;99.90
13436;DHT22;6790;49.520;8.504;2023-01-13T08:59:32;8.80;99.90
13436;DHT22;6790;49.520;8.504;2023-01-13T09:01:58;8.80;99.90
13436;DHT22;6790;49.520;8.504;2023-01-13T09:04:25;8.70;99.90
13436;DHT22;6790;49.520;8.504;2023-01-13T09:06:53;8.70;99.90
13436;DHT22;6790;49.520;8.504;2023-01-13T09:09:19;8.80;99.90
13436;DHT22;6790;49.520;8.504;2023-01-13T09:11:48;8.70;99.90
13436;DHT22;6790;49.520;8.504;2023-01-13T09:14:35;8.70;99.90
13436;DHT22;6790;49.520;8.504;2023-01-13T09:17:02;8.60;99.90
13436;DHT22;6790;49.520;8.504;2023-01-13T09:19:28;8.60;99.90
13436;DHT22;6790;49.520;8.504;2023-01-13T09:21:55;8.70;99.90
13436;DHT22;6790;49.520;8.504;2023-01-13T09:24:22;8.80;99.90
13436;DHT22;6790;49.520;8.504;2023-01-13T09:26:48;8.80;99.90
13436;DHT22;6790;49.520;8.504;2023-01-13T09:29:14;8.90;99.90
13436;DHT22;6790;49.520;8.504;2023-01-13T09:31:41;9.00;99.90
13436;DHT22;6790;49.520;8.504;2023-01-13T09:34:12;9.10;99.90
13436;DHT22;6790;49.520;8.504;2023-01-13T09:36:58;9.30;99.90
13436;DHT22;6790;49.520;8.504;2023-01-13T09:39:24;9.30;99.90
13436;DHT22;6790;49.520;8.504;2023-01-13T09:41:53;9.30;99.90
13436;DHT22;6790;49.520;8.504;2023-01-13T09:44:59;9.30;99.90
13436;DHT22;6790;49.520;8.504;2023-01-13T09:47:49;9.40;99.90
13436;DHT22;6790;49.520;8.504;2023-01-13T09:53:14;9.50;99.90
13436;DHT22;6790;49.520;8.504;2023-01-13T09:55:44;9.50;99.90
13436;DHT22;6790;49.520;8.504;2023-01-13T09:58:14;9.50;99.90
13436;DHT22;6790;49.520;8.504;2023-01-13T10:03:40;9.60;99.90
13436;DHT22;6790;49.520;8.504;2023-01-13T10:08:47;9.70;99.90
13436;DHT22;6790;49.520;8.504;2023-01-13T10:11:16;9.70;99.90
13436;DHT22;6790;49.520;8.504;2023-01-13T10:14:11;9.70;99.90
13436;DHT22;6790;49.520;8.504;2023-01-13T10:19:37;9.80;99.90
13436;DHT22;6790;49.520;8.504;2023-01-13T10:27:53;10.00;99.90
13436;DHT22;6790;49.520;8.504;2023-01-13T10:30:31;9.90;99.90
13436;DHT22;6790;49.520;8.504;2023-01-13T10:33:10;9.80;99.90
13436;DHT22;6790;49.520;8.504;2023-01-13T10:36:11;9.90;99.90
13436;DHT22;6790;49.520;8.504;2023-01-13T10:43:42;10.10;99.90
13436;DHT22;6790;49.520;8.504;2023-01-13T10:46:14;10.10;99.90
13436;DHT22;6790;49.520;8.504;2023-01-13T10:51:26;10.00;99.90
13436;DHT22;6790;49.520;8.504;2023-01-13T10:56:25;9.90;99.90
13436;DHT22;6790;49.520;8.504;2023-01-13T11:02:25;9.90;99.90
13436;DHT22;6790;49.520;8.504;2023-01-13T11:07:30;9.70;99.90
13436;DHT22;6790;49.520;8.504;2023-01-13T11:10:02;9.60;99.90
13436;DHT22;6790;49.520;8.504;2023-01-13T11:12:33;9.60;99.90
13436;DHT22;6790;49.520;8.504;2023-01-13T11:15:03;9.50;99.90
13436;DHT22;6790;49.520;8.504;2023-01-13T11:17:40;9.60;99.90
13436;DHT22;6790;49.520;8.504;2023-01-13T11:20:29;9.70;99.90
13436;DHT22;6790;49.520;8.504;2023-01-13T11:23:03;9.70;99.90
13436;DHT22;6790;49.520;8.504;2023-01-13T11:25:44;9.90;99.90
13436;DHT22;6790;49.520;8.504;2023-01-13T11:34:01;10.20;99.90
13436;DHT22;6790;49.520;8.504;2023-01-13T11:36:38;10.20;99.90
13436;DHT22;6790;49.520;8.504;2023-01-13T11:42:49;10.30;99.90
13436;DHT22;6790;49.520;8.504;2023-01-13T11:45:31;10.40;99.90
13436;DHT22;6790;49.520;8.504;2023-01-13T11:48:01;10.50;99.90
13436;DHT22;6790;49.520;8.504;2023-01-13T11:50:40;10.60;99.90
13436;DHT22;6790;49.520;8.504;2023-01-13T12:16:50;10.50;99.90
13436;DHT22;6790;49.520;8.504;2023-01-13T12:19:26;10.20;99.90
13436;DHT22;6790;49.520;8.504;2023-01-13T12:22:15;10.20;99.90
13436;DHT22;6790;49.520;8.504;2023-01-13T12:24:56;10.20;99.90
13436;DHT22;6790;49.520;8.504;2023-01-13T12:27:48;10.50;99.90
13436;DHT22;6790;49.520;8.504;2023-01-13T12:30:22;10.50;99.90
13436;DHT22;6790;49.520;8.504;2023-01-13T12:32:55;10.50;99.90
13436;DHT22;6790;49.520;8.504;2023-01-13T12:35:40;10.60;99.90
13436;DHT22;6790;49.520;8.504;2023-01-13T12:38:47;10.80;99.90
13436;DHT22;6790;49.520;8.504;2023-01-13T12:44:28;10.60;99.90
13436;DHT22;6790;49.520;8.504;2023-01-13T12:46:55;10.40;99.90
13436;DHT22;6790;49.520;8.504;2023-01-13T12:49:26;10.30;99.90
13436;DHT22;6790;49.520;8.504;2023-01-13T12:57:23;10.10;99.90
13436;DHT22;6790;49.520;8.504;2023-01-13T13:02:37;10.10;99.90
13436;DHT22;6790;49.520;8.504;2023-01-13T13:07:39;10.00;99.90
13436;DHT22;6790;49.520;8.504;2023-01-13T13:10:28;10.10;99.90
13436;DHT22;6790;49.520;8.504;2023-01-13T13:12:57;10.00;99.90
13436;DHT22;6790;49.520;8.504;2023-01-13T13:15:44;10.00;99.90
13436;DHT22;6790;49.520;8.504;2023-01-13T13:23:40;9.90;99.90
13436;DHT22;6790;49.520;8.504;2023-01-13T13:32:15;9.80;99.90
13436;DHT22;6790;49.520;8.504;2023-01-13T13:38:03;9.80;99.90
13436;DHT22;6790;49.520;8.504;2023-01-13T13:40:55;9.90;99.90
13436;DHT22;6790;49.520;8.504;2023-01-13T13:43:43;9.90;99.90
13436;DHT22;6790;49.520;8.504;2023-01-13T13:46:31;9.90;99.90
13436;DHT22;6790;49.520;8.504;2023-01-13T13:49:14;10.00;99.90
13436;DHT22;6790;49.520;8.504;2023-01-13T13:54:46;10.00;99.90
13436;DHT22;6790;49.520;8.504;2023-01-13T13:57:37;9.90;99.90
13436;DHT22;6790;49.520;8.504;2023-01-13T14:02:44;9.50;99.90
13436;DHT22;6790;49.520;8.504;2023-01-13T14:05:19;9.20;99.90
13436;DHT22;6790;49.520;8.504;2023-01-13T14:07:47;9.10;99.90
13436;DHT22;6790;49.520;8.504;2023-01-13T14:10:23;9.20;99.90
13436;DHT22;6790;49.520;8.504;2023-01-13T14:12:53;9.30;99.90
13436;DHT22;6790;49.520;8.504;2023-01-13T14:15:32;9.40;99.90
13436;DHT22;6790;49.520;8.504;2023-01-13T14:18:05;9.40;99.90
13436;DHT22;6790;49.520;8.504;2023-01-13T14:20:37;9.30;99.90
13436;DHT22;6790;49.520;8.504;2023-01-13T14:23:04;9.20;99.90
13436;DHT22;6790;49.520;8.504;2023-01-13T14:25:34;9.20;99.90
13436;DHT22;6790;49.520;8.504;2023-01-13T14:28:28;9.20;99.90
13436;DHT22;6790;49.520;8.504;2023-01-13T14:30:56;9.10;99.90
13436;DHT22;6790;49.520;8.504;2023-01-13T14:33:35;9.00;99.90
13436;DHT22;6790;49.520;8.504;2023-01-13T14:36:13;9.00;99.90
13436;DHT22;6790;49.520;8.504;2023-01-13T14:41:44;9.00;99.90
13436;DHT22;6790;49.520;8.504;2023-01-13T14:44:25;8.90;99.90
13436;DHT22;6790;49.520;8.504;2023-01-13T14:46:54;9.00;99.90
13436;DHT22;6790;49.520;8.504;2023-01-13T14:49:39;8.90;99.90
13436;DHT22;6790;49.520;8.504;2023-01-13T14:52:15;8.80;99.90
13436;DHT22;6790;49.520;8.504;2023-01-13T15:02:45;8.60;99.90
13436;DHT22;6790;49.520;8.504;2023-01-13T15:05:29;8.60;99.90
13436;DHT22;6790;49.520;8.504;2023-01-13T15:08:35;8.60;99.90
13436;DHT22;6790;49.520;8.504;2023-01-13T15:11:06;8.60;99.90
13436;DHT22;6790;49.520;8.504;2023-01-13T15:13:46;8.70;99.90
13436;DHT22;6790;49.520;8.504;2023-01-13T15:16:17;8.80;99.90
13436;DHT22;6790;49.520;8.504;2023-01-13T15:18:45;8.80;99.90
13436;DHT22;6790;49.520;8.504;2023-01-13T15:21:12;8.90;99.90
13436;DHT22;6790;49.520;8.504;2023-01-13T15:23:37;8.80;99.90
13436;DHT22;6790;49.520;8.504;2023-01-13T15:26:29;8.80;99.90
13436;DHT22;6790;49.520;8.504;2023-01-13T15:28:57;8.70;99.90
13436;DHT22;6790;49.520;8.504;2023-01-13T15:31:24;8.70;99.90
13436;DHT22;6790;49.520;8.504;2023-01-13T15:33:52;8.70;99.90
13436;DHT22;6790;49.520;8.504;2023-01-13T15:36:24;8.60;99.90
13436;DHT22;6790;49.520;8.504;2023-01-13T15:38:55;8.50;99.90
13436;DHT22;6790;49.520;8.504;2023-01-13T15:41:21;8.50;99.90
13436;DHT22;6790;49.520;8.504;2023-01-13T15:44:06;8.40;99.90
13436;DHT22;6790;49.520;8.504;2023-01-13T15:46:51;8.50;99.90
13436;DHT22;6790;49.520;8.504;2023-01-13T15:49:39;8.40;99.90
13436;DHT22;6790;49.520;8.504;2023-01-13T15:52:22;8.40;99.90
13436;DHT22;6790;49.520;8.504;2023-01-13T15:54:50;8.30;99.90
13436;DHT22;6790;49.520;8.504;2023-01-13T15:59:59;8.30;99.90
13436;DHT22;6790;49.520;8.504;2023-01-13T16:02:25;8.30;99.90
13436;DHT22;6790;49.520;8.504;2023-01-13T16:04:52;8.40;99.90
13436;DHT22;6790;49.520;8.504;2023-01-13T16:07:20;8.50;99.90
13436;DHT22;6790;49.520;8.504;2023-01-13T16:09:46;8.40;99.90
13436;DHT22;6790;49.520;8.504;2023-01-13T16:12:12;8.50;99.90
13436;DHT22;6790;49.520;8.504;2023-01-13T16:14:38;8.70;99.90
13436;DHT22;6790;49.520;8.504;2023-01-13T16:17:17;8.60;99.90
13436;DHT22;6790;49.520;8.504;2023-01-13T16:19:44;8.70;99.90
13436;DHT22;6790;49.520;8.504;2023-01-13T16:22:12;8.80;99.90
13436;DHT22;6790;49.520;8.504;2023-01-13T16:24:38;8.80;99.90
13436;DHT22;6790;49.520;8.504;2023-01-13T16:27:14;8.90;99.90
13436;DHT22;6790;49.520;8.504;2023-01-13T16:29:42;9.00;99.90
13436;DHT22;6790;49.520;8.504;2023-01-13T16:32:08;8.90;99.90
13436;DHT22;6790;49.520;8.504;2023-01-13T16:34:34;8.90;99.90
13436;DHT22;6790;49.520;8.504;2023-01-13T16:37:00;8.90;99.90
13436;DHT22;6790;49.520;8.504;2023-01-13T16:39:26;9.10;99.90
13436;DHT22;6790;49.520;8.504;2023-01-13T16:41:52;9.10;99.90
13436;DHT22;6790;49.520;8.504;2023-01-13T16:44:18;9.00;99.90
13436;DHT22;6790;49.520;8.504;2023-01-13T16:46:44;9.00;99.90
13436;DHT22;6790;49.520;8.504;2023-01-13T16:49:13;9.00;99.90
13436;DHT22;6790;49.520;8.504;2023-01-13T16:51:39;8.90;99.90
13436;DHT22;6790;49.520;8.504;2023-01-13T16:54:05;8.70;99.90
13436;DHT22;6790;49.520;8.504;2023-01-13T16:56:35;8.80;99.90
13436;DHT22;6790;49.520;8.504;2023-01-13T16:59:11;8.60;99.90
13436;DHT22;6790;49.520;8.504;2023-01-13T17:01:40;8.50;99.90
13436;DHT22;6790;49.520;8.504;2023-01-13T17:04:13;8.50;99.90
13436;DHT22;6790;49.520;8.504;2023-01-13T17:07:03;8.50;99.90
13436;DHT22;6790;49.520;8.504;2023-01-13T17:09:29;8.50;99.90
13436;DHT22;6790;49.520;8.504;2023-01-13T17:11:56;8.50;99.90
13436;DHT22;6790;49.520;8.504;2023-01-13T17:14:22;8.40;99.90
13436;DHT22;6790;49.520;8.504;2023-01-13T17:16:50;8.40;99.90
13436;DHT22;6790;49.520;8.504;2023-01-13T17:19:17;8.40;99.90
13436;DHT22;6790;49.520;8.504;2023-01-13T17:21:42;8.50;99.90
13436;DHT22;6790;49.520;8.504;2023-01-13T17:24:08;8.40;99.90
13436;DHT22;6790;49.520;8.504;2023-01-13T17:26:42;8.40;99.90
13436;DHT22;6790;49.520;8.504;2023-01-13T17:29:17;8.30;99.90
13436;DHT22;6790;49.520;8.504;2023-01-13T17:31:52;8.40;99.90
13436;DHT22;6790;49.520;8.504;2023-01-13T17:34:18;8.40;99.90
13436;DHT22;6790;49.520;8.504;2023-01-13T17:36:44;8.30;99.90
13436;DHT22;6790;49.520;8.504;2023-01-13T17:39:18;8.20;99.90
13436;DHT22;6790;49.520;8.504;2023-01-13T17:41:48;8.30;99.90
13436;DHT22;6790;49.520;8.504;2023-01-13T17:44:17;8.20;99.90
13436;DHT22;6790;49.520;8.504;2023-01-13T17:46:44;8.20;99.90
13436;DHT22;6790;49.520;8.504;2023-01-13T17:49:14;8.30;99.90
13436;DHT22;6790;49.520;8.504;2023-01-13T17:51:42;8.20;99.90
13436;DHT22;6790;49.520;8.504;2023-01-13T17:54:12;8.40;99.90
13436;DHT22;6790;49.520;8.504;2023-01-13T17:56:39;8.30;99.90
13436;DHT22;6790;49.520;8.504;2023-01-13T17:59:05;8.30;99.90
13436;DHT22;6790;49.520;8.504;2023-01-13T18:01:31;8.30;99.90
13436;DHT22;6790;49.520;8.504;2023-01-13T18:03:58;8.20;99.90
13436;DHT22;6790;49.520;8.504;2023-01-13T18:06:25;8.10;99.90
13436;DHT22;6790;49.520;8.504;2023-01-13T18:08:51;8.10;99.90
13436;DHT22;6790;49.520;8.504;2023-01-13T18:11:20;8.30;99.90
13436;DHT22;6790;49.520;8.504;2023-01-13T18:13:48;8.40;99.90
13436;DHT22;6790;49.520;8.504;2023-01-13T18:16:17;8.30;99.90
13436;DHT22;6790;49.520;8.504;2023-01-13T18:18:44;8.30;99.90
13436;DHT22;6790;49.520;8.504;2023-01-13T18:21:25;8.20;99.90
13436;DHT22;6790;49.520;8.504;2023-01-13T18:24:12;8.20;99.90
13436;DHT22;6790;49.520;8.504;2023-01-13T18:26:57;8.30;99.90
13436;DHT22;6790;49.520;8.504;2023-01-13T18:29:42;8.30;99.90
13436;DHT22;6790;49.520;8.504;2023-01-13T18:32:07;8.40;99.90
13436;DHT22;6790;49.520;8.504;2023-01-13T18:34:37;8.40;99.90
13436;DHT22;6790;49.520;8.504;2023-01-13T18:37:04;8.40;99.90
13436;DHT22;6790;49.520;8.504;2023-01-13T18:39:32;8.50;99.90
13436;DHT22;6790;49.520;8.504;2023-01-13T18:41:58;8.40;99.90
13436;DHT22;6790;49.520;8.504;2023-01-13T18:44:42;8.30;99.90
13436;DHT22;6790;49.520;8.504;2023-01-13T18:47:08;8.20;99.90
13436;DHT22;6790;49.520;8.504;2023-01-13T18:49:33;8.20;99.90
13436;DHT22;6790;49.520;8.504;2023-01-13T18:51:59;8.20;99.90